Time;durP1;ratioP1;P1;durP2;ratioP2;P2;SDS_P1;SDS_P2;PMS_P1;PMS_P2;Temp;Humidity;BMP_temperature;BMP_pressure;BME280_temperature;BME280_humidity;BME280_pressure;Samples;Min_cycle;Max_cycle;Signal;HPM_P1;HPM_P2
2022/03/10 00:01:44;;;;;;;7.10;5.20;;;;;;;-0.02;100.00;100619.03;5078926;28;20032;-71
2022/03/10 00:04:10;;;;;;;7.15;5.38;;;;;;;-0.05;100.00;100599.78;5060994;28;20418;-69
2022/03/10 00:06:35;;;;;;;6.82;5.57;;;;;;;-0.28;100.00;100625.84;5080438;28;20028;-71
2022/03/10 00:09:02;;;;;;;8.10;6.30;;;;;;;-0.35;100.00;100590.69;5080586;28;20425;-70
2022/03/10 00:11:27;;;;;;;8.15;5.75;;;;;;;0.08;100.00;100623.41;5082265;28;20055;-70
2022/03/10 00:13:53;;;;;;;8.13;5.82;;;;;;;-0.27;100.00;100624.19;5085519;28;20024;-70
2022/03/10 00:16:18;;;;;;;7.82;5.97;;;;;;;-0.48;100.00;100587.03;5052975;28;20120;-70
2022/03/10 00:18:44;;;;;;;7.95;5.93;;;;;;;-0.34;100.00;100622.34;5078541;28;20439;-70
2022/03/10 00:21:09;;;;;;;8.63;5.97;;;;;;;-0.29;100.00;100590.84;5082977;28;20585;-69
2022/03/10 00:23:35;;;;;;;8.88;6.13;;;;;;;-0.28;100.00;100630.81;5075899;28;20114;-70
2022/03/10 00:26:00;;;;;;;8.57;6.57;;;;;;;-0.21;100.00;100597.72;5093485;28;20028;-70
2022/03/10 00:28:26;;;;;;;10.05;7.05;;;;;;;-0.46;100.00;100597.91;5075468;28;20089;-70
2022/03/10 00:30:51;;;;;;;10.68;7.20;;;;;;;-0.47;100.00;100596.22;5093075;28;20425;-69
2022/03/10 00:33:17;;;;;;;9.70;6.80;;;;;;;-0.53;100.00;100591.06;5093377;28;20024;-70
2022/03/10 00:35:42;;;;;;;9.88;6.65;;;;;;;0.01;100.00;100619.06;5093106;28;20482;-70
2022/03/10 00:38:08;;;;;;;8.23;5.80;;;;;;;-0.19;100.00;100626.09;5093578;28;20563;-68
2022/03/10 00:40:33;;;;;;;7.65;5.50;;;;;;;-0.75;100.00;100585.47;5075084;28;20126;-69
2022/03/10 00:42:59;;;;;;;7.22;5.43;;;;;;;-0.90;100.00;100561.81;5093602;28;20552;-70
2022/03/10 00:45:28;;;;;;;7.13;5.13;;;;;;;-0.86;100.00;100580.19;5093503;28;20144;-70
2022/03/10 00:47:54;;;;;;;7.55;5.30;;;;;;;-0.51;100.00;100591.09;5075290;28;20028;-70
2022/03/10 00:50:20;;;;;;;6.93;5.07;;;;;;;-0.65;100.00;100575.75;5092580;28;20035;-68
2022/03/10 00:52:47;;;;;;;6.95;5.00;;;;;;;-0.67;100.00;100584.84;5093426;28;20115;-70
2022/03/10 00:55:17;;;;;;;7.40;5.38;;;;;;;-0.65;100.00;100617.38;5093029;28;20035;-69
2022/03/10 00:57:42;;;;;;;11.32;6.38;;;;;;;-0.64;100.00;100616.53;5075135;28;20031;-70
2022/03/10 01:02:52;;;;;;;7.72;5.57;;;;;;;-0.18;100.00;100611.94;4391403;22;10000684;-70
2022/03/10 01:05:17;;;;;;;8.02;5.68;;;;;;;-0.93;100.00;100579.16;5042203;28;20037;-69
2022/03/10 01:07:43;;;;;;;7.97;5.20;;;;;;;-0.90;100.00;100575.91;5040191;28;20110;-70
2022/03/10 01:10:08;;;;;;;8.98;6.00;;;;;;;-0.60;100.00;100570.91;5052801;28;20492;-68
2022/03/10 01:12:34;;;;;;;8.13;5.95;;;;;;;-0.83;100.00;100576.94;5053005;28;20033;-70
2022/03/10 01:15:00;;;;;;;7.60;5.38;;;;;;;-0.80;100.00;100582.00;5052547;28;20063;-70
2022/03/10 01:17:26;;;;;;;8.10;5.70;;;;;;;-0.87;100.00;100581.81;5052173;28;20398;-70
2022/03/10 01:19:51;;;;;;;8.68;5.65;;;;;;;-0.53;100.00;100603.53;5052704;28;20033;-70
2022/03/10 01:22:17;;;;;;;8.77;6.05;;;;;;;-0.48;100.00;100608.66;5045023;28;20087;-69
2022/03/10 01:24:43;;;;;;;8.57;6.00;;;;;;;-0.63;100.00;100606.59;5032413;28;20419;-72
2022/03/10 01:27:10;;;;;;;8.13;6.00;;;;;;;-0.69;100.00;100591.44;5031466;28;20061;-69
2022/03/10 01:29:35;;;;;;;9.93;6.60;;;;;;;-0.60;100.00;100611.69;5048501;28;20037;-70
2022/03/10 01:32:00;;;;;;;9.10;6.50;;;;;;;-1.12;100.00;100573.63;5051705;28;20045;-70
2022/03/10 01:34:26;;;;;;;9.93;6.50;;;;;;;-1.08;100.00;100550.47;5052551;28;20143;-70
2022/03/10 01:36:51;;;;;;;10.32;7.10;;;;;;;-0.52;100.00;100584.41;5052258;28;20033;-70
2022/03/10 01:39:17;;;;;;;9.65;6.90;;;;;;;-0.69;100.00;100596.44;5051424;28;20509;-71
2022/03/10 01:41:43;;;;;;;9.70;6.72;;;;;;;-0.89;100.00;100567.59;5051744;28;20029;-71
2022/03/10 01:44:10;;;;;;;9.85;6.88;;;;;;;-0.77;100.00;100604.56;5033672;28;20025;-70
2022/03/10 01:46:37;;;;;;;9.70;6.47;;;;;;;-0.96;100.00;100578.25;5030314;28;20549;-70
2022/03/10 01:49:07;;;;;;;8.13;6.22;;;;;;;-1.07;100.00;100567.97;5032227;28;20096;-70
2022/03/10 01:51:34;;;;;;;9.90;6.75;;;;;;;-0.89;100.00;100592.56;5031788;28;20406;-71
2022/03/10 01:54:00;;;;;;;8.15;5.93;;;;;;;-0.83;100.00;100569.44;5031777;28;20034;-69
2022/03/10 01:56:26;;;;;;;7.75;5.80;;;;;;;-1.14;100.00;100568.59;5031795;28;20410;-70
2022/03/10 01:58:53;;;;;;;8.73;6.05;;;;;;;-0.59;100.00;100568.44;5031524;28;20037;-70
2022/03/10 02:01:20;;;;;;;9.10;5.82;;;;;;;-0.92;100.00;100577.53;5031943;28;20041;-70
2022/03/10 02:03:46;;;;;;;10.00;6.03;;;;;;;-0.64;100.00;100601.56;5030150;28;20045;-70
2022/03/10 02:06:12;;;;;;;10.30;6.15;;;;;;;-1.02;100.00;100565.59;5031746;28;20478;-70
2022/03/10 02:11:21;;;;;;;10.15;5.85;;;;;;;-0.99;100.00;100535.78;5046758;28;20458;-70
2022/03/10 02:13:47;;;;;;;9.75;6.00;;;;;;;-0.90;100.00;100565.94;5067172;28;20053;-70
2022/03/10 02:18:58;;;;;;;6.78;5.45;;;;;;;-0.62;100.00;100572.50;5051538;28;20102;-70
2022/03/10 02:21:24;;;;;;;8.38;5.72;;;;;;;-0.62;100.00;100587.47;5051543;28;20033;-70
2022/03/10 02:23:50;;;;;;;7.75;5.20;;;;;;;-0.91;100.00;100565.09;5051007;28;20033;-70
2022/03/10 02:26:16;;;;;;;7.68;5.55;;;;;;;-0.96;100.00;100566.63;5050734;28;20456;-70
2022/03/10 02:28:42;;;;;;;9.60;5.57;;;;;;;-0.67;100.00;100606.50;5043425;28;20030;-70
2022/03/10 02:31:08;;;;;;;6.75;4.97;;;;;;;-0.85;100.00;100593.50;5031185;28;20115;-70
2022/03/10 02:33:34;;;;;;;7.22;5.38;;;;;;;-0.65;100.00;100604.88;5030981;28;20087;-70
2022/03/10 02:36:00;;;;;;;8.15;5.70;;;;;;;-0.83;100.00;100604.38;5031041;28;20452;-70
2022/03/10 02:38:25;;;;;;;8.63;5.13;;;;;;;-0.82;100.00;100583.59;5030079;28;20026;-70
2022/03/10 02:40:51;;;;;;;7.30;5.00;;;;;;;-0.73;100.00;100579.69;5042050;28;20033;-69
2022/03/10 02:43:18;;;;;;;6.22;5.05;;;;;;;-0.80;100.00;100595.31;5033227;28;20040;-71
2022/03/10 02:45:45;;;;;;;7.53;5.05;;;;;;;-0.53;100.00;100611.03;5050732;28;20052;-70
2022/03/10 02:48:11;;;;;;;6.47;5.25;;;;;;;-0.53;100.00;100617.66;5033015;28;20452;-70
2022/03/10 02:50:36;;;;;;;7.40;5.35;;;;;;;-0.82;100.00;100626.88;5050805;28;20117;-71
2022/03/10 02:53:02;;;;;;;7.05;5.07;;;;;;;-0.94;100.00;100591.59;5049897;28;20113;-70
2022/03/10 02:55:28;;;;;;;7.15;5.03;;;;;;;-0.77;100.00;100607.88;5050546;28;20028;-69
2022/03/10 02:57:53;;;;;;;7.65;5.13;;;;;;;-1.05;100.00;100586.31;5051273;28;20032;-70
2022/03/10 03:00:19;;;;;;;8.95;5.90;;;;;;;-1.03;100.00;100579.72;5032538;28;20149;-70
2022/03/10 03:02:46;;;;;;;7.57;5.68;;;;;;;-0.96;100.00;100575.75;5051142;28;20185;-69
2022/03/10 03:05:12;;;;;;;8.10;5.68;;;;;;;-0.96;100.00;100588.22;5050949;28;20025;-70
2022/03/10 03:07:39;;;;;;;6.90;5.47;;;;;;;-0.93;100.00;100580.81;5050068;28;20075;-70
2022/03/10 03:10:06;;;;;;;7.72;5.20;;;;;;;-0.65;100.00;100613.19;5050405;28;20512;-70
2022/03/10 03:12:32;;;;;;;7.47;5.13;;;;;;;-1.14;100.00;100582.72;5032428;28;20086;-70
2022/03/10 03:14:58;;;;;;;7.57;5.05;;;;;;;-0.72;100.00;100613.00;5050481;28;20035;-65
2022/03/10 03:17:26;;;;;;;8.40;5.35;;;;;;;-1.08;100.00;100563.78;5051025;28;20475;-70
2022/03/10 03:19:53;;;;;;;8.50;6.03;;;;;;;-0.70;100.00;100612.25;5032592;28;20037;-70
2022/03/10 03:22:19;;;;;;;8.10;5.47;;;;;;;-0.70;100.00;100589.78;5028994;28;20042;-70
2022/03/10 03:24:45;;;;;;;7.85;5.78;;;;;;;-0.73;100.00;100618.81;5013074;28;20036;-71
2022/03/10 03:27:12;;;;;;;7.38;5.53;;;;;;;-0.51;100.00;100611.06;5030649;28;20026;-70
2022/03/10 03:29:38;;;;;;;7.97;5.93;;;;;;;-0.84;100.00;100613.50;5030482;28;20029;-70
2022/03/10 03:32:04;;;;;;;8.50;5.68;;;;;;;-0.61;100.00;100609.97;5030427;28;20033;-70
2022/03/10 03:34:31;;;;;;;8.15;6.13;;;;;;;-0.98;100.00;100608.13;5030447;28;20544;-70
2022/03/10 03:36:57;;;;;;;8.80;5.97;;;;;;;-1.25;100.00;100574.09;5030367;28;20553;-71
2022/03/10 03:39:22;;;;;;;7.85;5.65;;;;;;;-1.27;100.00;100598.13;5030076;28;20120;-69
2022/03/10 03:41:48;;;;;;;8.82;5.65;;;;;;;-1.18;100.00;100606.72;5030646;28;20040;-70
2022/03/10 03:44:14;;;;;;;8.57;5.72;;;;;;;-1.21;100.00;100576.69;5030217;28;20029;-69
2022/03/10 03:46:41;;;;;;;8.30;5.70;;;;;;;-1.13;100.00;100581.94;5033007;28;20033;-70
2022/03/10 03:49:07;;;;;;;9.05;5.90;;;;;;;-0.95;100.00;100602.38;5050485;28;20086;-69
2022/03/10 03:51:33;;;;;;;9.23;5.97;;;;;;;-1.08;100.00;100575.41;5035461;28;20749;-70
2022/03/10 03:53:58;;;;;;;9.68;5.95;;;;;;;-1.14;100.00;100576.09;5054482;28;20544;-70
2022/03/10 03:56:24;;;;;;;10.80;6.72;;;;;;;-1.13;100.00;100586.91;5036459;28;20032;-70
2022/03/10 03:58:49;;;;;;;12.40;7.32;;;;;;;-0.80;100.00;100612.78;5053654;28;20529;-69
2022/03/10 04:01:15;;;;;;;10.40;6.07;;;;;;;-0.92;100.00;100622.44;5054243;28;20535;-70
2022/03/10 04:03:40;;;;;;;12.40;7.05;;;;;;;-1.08;100.00;100621.16;5053772;28;20573;-70
2022/03/10 04:06:06;;;;;;;11.57;6.50;;;;;;;-1.13;100.00;100611.84;5053708;28;20421;-70
2022/03/10 04:08:32;;;;;;;12.43;6.43;;;;;;;-1.26;100.00;100598.16;5054026;28;20035;-70
2022/03/10 04:10:58;;;;;;;11.02;6.63;;;;;;;-1.45;100.00;100602.56;5036068;28;20470;-65
2022/03/10 04:13:23;;;;;;;13.35;7.57;;;;;;;-1.28;100.00;100616.38;5053899;28;20522;-70
2022/03/10 04:15:49;;;;;;;11.98;7.05;;;;;;;-1.06;100.00;100619.53;5053811;28;20474;-70
2022/03/10 04:18:19;;;;;;;12.27;7.10;;;;;;;-1.17;100.00;100623.34;5053821;28;20033;-70
2022/03/10 04:20:46;;;;;;;13.38;7.45;;;;;;;-1.50;100.00;100564.19;5053759;28;20074;-70
2022/03/10 04:23:13;;;;;;;10.82;6.88;;;;;;;-1.31;100.00;100601.34;5053857;28;20033;-70
2022/03/10 04:25:39;;;;;;;10.10;6.20;;;;;;;-1.17;100.00;100595.94;5053945;28;20538;-70
2022/03/10 04:28:04;;;;;;;15.63;8.85;;;;;;;-1.10;100.00;100624.38;5053525;28;20112;-70
2022/03/10 04:30:32;;;;;;;18.10;9.48;;;;;;;-1.14;100.00;100625.09;5053658;28;20021;-70
2022/03/10 04:32:58;;;;;;;9.65;6.72;;;;;;;-1.36;100.00;100588.72;5053694;28;20029;-69
2022/03/10 04:35:24;;;;;;;17.10;9.35;;;;;;;-1.54;100.00;100592.31;5053275;28;20170;-70
2022/03/10 04:37:51;;;;;;;10.45;6.22;;;;;;;-1.20;100.00;100635.75;5053655;28;20127;-71
2022/03/10 04:40:17;;;;;;;9.00;6.38;;;;;;;-1.03;100.00;100643.75;5053440;28;20040;-69
2022/03/10 04:42:43;;;;;;;10.63;7.10;;;;;;;-1.35;100.00;100600.41;5053391;28;20033;-70
2022/03/10 04:45:09;;;;;;;11.07;7.20;;;;;;;-1.38;100.00;100611.91;5053342;28;20127;-69
2022/03/10 04:47:36;;;;;;;9.98;6.93;;;;;;;-1.22;100.00;100643.97;5035504;28;20041;-74
2022/03/10 04:50:03;;;;;;;9.32;6.80;;;;;;;-1.46;100.00;100609.19;5053952;28;20028;-74
2022/03/10 04:52:29;;;;;;;10.63;6.78;;;;;;;-1.05;100.00;100641.19;5053631;28;20486;-71
2022/03/10 04:54:55;;;;;;;8.70;6.25;;;;;;;-0.95;100.00;100652.25;5053350;28;20039;-70
2022/03/10 04:57:21;;;;;;;9.35;6.45;;;;;;;-1.05;100.00;100622.91;5052821;28;20490;-69
2022/03/10 04:59:46;;;;;;;8.98;6.72;;;;;;;-0.69;100.00;100641.38;5052956;28;20071;-72
2022/03/10 05:02:12;;;;;;;11.07;6.60;;;;;;;-1.02;100.00;100622.97;5052324;28;20055;-69
2022/03/10 05:04:37;;;;;;;9.85;7.35;;;;;;;-1.04;100.00;100625.41;5053350;28;20120;-72
2022/03/10 05:07:04;;;;;;;10.55;7.43;;;;;;;-0.65;100.00;100663.09;5034491;28;20040;-67
2022/03/10 05:09:29;;;;;;;10.90;7.53;;;;;;;2.20;100.00;100616.06;5034876;28;20080;-70
2022/03/10 05:11:55;;;;;;;12.23;7.55;;;;;;;1.56;100.00;100622.47;5052605;28;20029;-70
2022/03/10 05:14:20;;;;;;;12.55;7.88;;;;;;;3.05;100.00;100623.94;5052257;28;20222;-69
2022/03/10 05:16:45;;;;;;;13.50;8.10;;;;;;;2.76;100.00;100647.81;5043049;28;20486;-73
2022/03/10 05:19:11;;;;;;;10.00;7.38;;;;;;;2.97;97.02;100620.50;5032209;28;20061;-69
2022/03/10 05:21:36;;;;;;;9.90;7.07;;;;;;;2.80;96.04;100621.94;5032365;28;20410;-70
2022/03/10 05:24:03;;;;;;;11.70;7.72;;;;;;;4.42;83.99;100632.03;5032335;28;20483;-67
2022/03/10 05:26:28;;;;;;;12.10;8.65;;;;;;;4.42;83.37;100634.53;5031150;28;20486;-70
2022/03/10 05:28:54;;;;;;;10.82;8.07;;;;;;;2.89;85.94;100626.25;5031925;28;20064;-70
2022/03/10 05:31:19;;;;;;;12.82;8.45;;;;;;;3.80;85.13;100666.72;5032046;28;20030;-70
2022/03/10 05:33:44;;;;;;;12.82;8.48;;;;;;;4.66;78.85;100648.97;5032253;28;20521;-69
2022/03/10 05:36:10;;;;;;;11.18;7.97;;;;;;;3.75;78.11;100632.28;5032041;28;20025;-69
2022/03/10 05:38:36;;;;;;;12.73;7.72;;;;;;;2.42;81.53;100668.22;5031903;28;20032;-67
2022/03/10 05:41:01;;;;;;;13.85;8.10;;;;;;;4.72;75.25;100659.94;5030456;28;20030;-68
2022/03/10 05:43:27;;;;;;;9.45;7.10;;;;;;;3.88;73.25;100641.63;5032128;28;20033;-69
2022/03/10 05:45:52;;;;;;;11.15;6.32;;;;;;;2.67;80.02;100682.84;5031471;28;20029;-68
2022/03/10 05:48:17;;;;;;;10.73;6.72;;;;;;;1.84;89.42;100646.34;5032004;28;20752;-70
2022/03/10 05:50:43;;;;;;;8.90;6.20;;;;;;;1.13;96.31;100676.69;5030893;28;20033;-70
2022/03/10 05:53:09;;;;;;;9.80;6.38;;;;;;;0.53;100.00;100648.66;5032026;28;20032;-70
2022/03/10 05:55:35;;;;;;;10.57;7.35;;;;;;;1.08;100.00;100676.56;5029675;28;20410;-68
2022/03/10 05:58:00;;;;;;;9.25;6.50;;;;;;;0.92;100.00;100671.19;5032247;28;20087;-69
2022/03/10 06:00:26;;;;;;;10.10;6.97;;;;;;;1.14;100.00;100658.34;5031281;28;20089;-69
2022/03/10 06:02:51;;;;;;;9.32;6.30;;;;;;;1.75;100.00;100656.19;5029610;28;20087;-68
2022/03/10 06:05:17;;;;;;;8.35;6.18;;;;;;;1.07;96.57;100662.34;5030982;28;20479;-70
2022/03/10 06:07:43;;;;;;;7.90;5.82;;;;;;;2.38;92.55;100691.56;5029617;28;20542;-71
2022/03/10 06:10:09;;;;;;;9.32;6.72;;;;;;;1.82;91.72;100702.28;5030965;28;20505;-69
2022/03/10 06:12:34;;;;;;;7.43;6.35;;;;;;;2.50;90.13;100704.28;5029557;28;20037;-69
2022/03/10 06:15:03;;;;;;;11.82;7.10;;;;;;;2.61;92.54;100713.69;5029777;28;20044;-70
2022/03/10 06:17:29;;;;;;;8.02;6.40;;;;;;;1.50;93.42;100687.47;5031363;28;20033;-70
2022/03/10 06:19:56;;;;;;;9.27;6.43;;;;;;;1.72;92.98;100679.53;5031340;28;20041;-70
2022/03/10 06:22:24;;;;;;;8.18;6.63;;;;;;;1.53;91.78;100694.19;5031712;28;20482;-69
2022/03/10 06:24:50;;;;;;;7.72;6.20;;;;;;;1.86;92.93;100734.09;5031626;28;20057;-70
2022/03/10 06:27:17;;;;;;;9.02;6.88;;;;;;;2.20;92.35;100672.03;5030367;28;20537;-70
2022/03/10 06:29:44;;;;;;;8.40;7.00;;;;;;;2.42;87.64;100734.28;5030200;28;20102;-71
2022/03/10 06:32:13;;;;;;;8.13;5.97;;;;;;;1.71;89.37;100702.91;5031708;28;20033;-70
2022/03/10 06:34:39;;;;;;;10.20;7.22;;;;;;;2.89;89.65;100727.53;5031542;28;20572;-70
2022/03/10 06:37:05;;;;;;;11.30;7.05;;;;;;;1.94;91.24;100705.84;5031543;28;20033;-71
2022/03/10 06:39:31;;;;;;;8.88;6.47;;;;;;;2.35;90.69;100721.63;5031320;28;20163;-71
2022/03/10 06:41:57;;;;;;;10.82;6.50;;;;;;;2.85;90.39;100720.78;5030995;28;20033;-69
2022/03/10 06:44:23;;;;;;;8.60;6.53;;;;;;;2.18;89.41;100723.81;5031063;28;20156;-70
2022/03/10 06:46:48;;;;;;;10.05;6.95;;;;;;;2.67;89.94;100726.31;5030120;28;20606;-70
2022/03/10 06:49:14;;;;;;;8.40;6.70;;;;;;;2.53;85.98;100684.28;5030887;28;20548;-69
2022/03/10 06:51:39;;;;;;;9.70;6.82;;;;;;;2.50;84.41;100709.31;5031241;28;20021;-70
2022/03/10 06:54:05;;;;;;;10.05;7.47;;;;;;;3.26;79.51;100704.59;5031202;28;20026;-70
2022/03/10 06:56:30;;;;;;;8.38;6.57;;;;;;;3.16;83.62;100680.19;5030804;28;20104;-71
2022/03/10 06:58:56;;;;;;;7.93;6.53;;;;;;;2.92;83.91;100715.00;5029558;28;20086;-68
2022/03/10 07:01:21;;;;;;;8.23;5.70;;;;;;;2.64;82.19;100716.25;5031330;28;20033;-70
2022/03/10 07:03:47;;;;;;;8.07;5.43;;;;;;;2.18;77.55;100707.97;5031098;28;20442;-70
2022/03/10 07:06:12;;;;;;;8.35;6.43;;;;;;;2.45;79.25;100698.38;5030983;28;20029;-71
2022/03/10 07:08:38;;;;;;;8.15;5.72;;;;;;;2.77;77.85;100709.78;5030575;28;20034;-70
2022/03/10 07:11:03;;;;;;;8.10;6.55;;;;;;;3.61;75.06;100682.41;5030881;28;20022;-70
2022/03/10 07:13:29;;;;;;;8.15;6.63;;;;;;;2.47;79.20;100687.56;5030586;28;20029;-69
2022/03/10 07:15:56;;;;;;;8.35;6.45;;;;;;;2.49;83.41;100710.16;5030823;28;20472;-70
2022/03/10 07:18:21;;;;;;;8.13;6.45;;;;;;;2.58;77.83;100688.56;5030879;28;20029;-70
2022/03/10 07:20:47;;;;;;;11.00;7.57;;;;;;;2.31;77.29;100729.91;5030950;28;20030;-70
2022/03/10 07:23:12;;;;;;;7.20;5.90;;;;;;;2.84;76.08;100663.00;5030669;28;20179;-69
2022/03/10 07:25:38;;;;;;;8.20;6.78;;;;;;;3.10;73.46;100706.88;5034723;28;20025;-69
2022/03/10 07:28:04;;;;;;;10.07;6.90;;;;;;;3.01;72.05;100699.25;5035929;28;20586;-68
2022/03/10 07:30:30;;;;;;;7.85;6.35;;;;;;;3.56;70.47;100718.38;5037495;28;20040;-70
2022/03/10 07:32:55;;;;;;;9.43;6.53;;;;;;;2.97;72.07;100692.47;5036985;28;20481;-70
2022/03/10 07:35:21;;;;;;;8.90;6.70;;;;;;;3.18;72.22;100707.84;5037283;28;20087;-70
2022/03/10 07:37:48;;;;;;;7.82;6.50;;;;;;;3.59;68.22;100734.31;5037462;28;20033;-69
2022/03/10 07:40:13;;;;;;;7.55;6.03;;;;;;;2.92;70.04;100722.53;5035506;28;20132;-70
2022/03/10 07:42:38;;;;;;;8.95;6.55;;;;;;;3.45;68.12;100693.09;5035756;28;20112;-69
2022/03/10 07:45:04;;;;;;;8.18;6.28;;;;;;;2.85;68.13;100725.78;5036698;28;20041;-70
2022/03/10 07:47:30;;;;;;;8.88;6.07;;;;;;;3.08;67.28;100724.44;5037000;28;20044;-70
2022/03/10 07:49:57;;;;;;;8.95;6.20;;;;;;;3.31;68.45;100728.09;5036939;28;20029;-71
2022/03/10 07:52:22;;;;;;;9.00;6.45;;;;;;;4.37;66.55;100726.78;5036846;28;20078;-71
2022/03/10 07:54:48;;;;;;;8.55;5.90;;;;;;;3.38;66.07;100727.38;5036621;28;20120;-69
2022/03/10 07:57:13;;;;;;;9.00;6.35;;;;;;;3.55;64.00;100715.00;5035506;28;20033;-69
2022/03/10 07:59:39;;;;;;;8.65;6.57;;;;;;;3.41;64.66;100692.22;5036771;28;20032;-71
2022/03/10 08:02:04;;;;;;;7.13;6.40;;;;;;;3.32;65.11;100721.41;5036178;28;20060;-70
2022/03/10 08:04:30;;;;;;;10.57;6.10;;;;;;;3.53;63.37;100723.38;5036140;28;20622;-70
2022/03/10 08:06:55;;;;;;;7.82;6.28;;;;;;;3.50;65.61;100731.72;5035655;28;20032;-71
2022/03/10 08:09:21;;;;;;;7.63;6.07;;;;;;;3.75;65.62;100718.59;5035950;28;20132;-69
2022/03/10 08:11:46;;;;;;;7.65;6.07;;;;;;;3.89;63.71;100717.09;5036658;28;20029;-71
2022/03/10 08:14:12;;;;;;;9.40;6.13;;;;;;;4.64;63.69;100716.94;5035660;28;20502;-71
2022/03/10 08:16:37;;;;;;;8.35;6.40;;;;;;;3.87;64.33;100686.06;5036787;28;20022;-70
2022/03/10 08:19:02;;;;;;;7.10;6.05;;;;;;;4.21;60.76;100714.91;5036572;28;20028;-70
2022/03/10 08:21:28;;;;;;;8.48;5.75;;;;;;;4.08;58.85;100682.91;5037122;28;20029;-70
2022/03/10 08:23:53;;;;;;;6.32;5.22;;;;;;;4.07;60.39;100706.38;5035656;28;20041;-70
2022/03/10 08:26:20;;;;;;;9.25;6.00;;;;;;;4.40;60.67;100709.19;5035059;28;20044;-70
2022/03/10 08:28:50;;;;;;;7.85;5.50;;;;;;;4.56;58.43;100703.44;5035165;28;20033;-69
2022/03/10 08:31:16;;;;;;;5.37;4.53;;;;;;;4.09;56.31;100684.59;5036899;28;20120;-70
2022/03/10 08:33:42;;;;;;;8.57;6.57;;;;;;;4.91;57.52;100694.47;5036598;28;20025;-70
2022/03/10 08:36:07;;;;;;;7.53;5.53;;;;;;;4.27;56.37;100682.25;5035310;28;20030;-70
2022/03/10 08:38:33;;;;;;;5.68;4.60;;;;;;;4.43;55.40;100708.38;5033207;28;20104;-70
2022/03/10 08:40:59;;;;;;;6.75;5.20;;;;;;;4.01;56.57;100684.53;5033203;28;20036;-71
2022/03/10 08:43:28;;;;;;;6.82;4.90;;;;;;;4.35;56.20;100685.66;5033102;28;20128;-71
2022/03/10 08:45:55;;;;;;;8.77;6.65;;;;;;;4.44;58.50;100669.81;5033457;28;20408;-70
2022/03/10 08:48:20;;;;;;;6.78;5.18;;;;;;;3.86;55.44;100670.94;5033317;28;20022;-70
2022/03/10 08:50:46;;;;;;;8.15;5.18;;;;;;;4.52;55.58;100674.06;5032335;28;20387;-65
2022/03/10 08:53:12;;;;;;;6.63;5.10;;;;;;;4.47;54.73;100685.78;5033645;28;20052;-71
2022/03/10 08:55:37;;;;;;;6.18;4.90;;;;;;;4.96;53.34;100682.75;5032941;28;20021;-70
2022/03/10 08:58:03;;;;;;;6.93;5.72;;;;;;;5.33;53.04;100698.09;5033643;28;20033;-71
2022/03/10 09:00:28;;;;;;;9.00;5.57;;;;;;;4.72;53.75;100661.59;5033255;28;20034;-70
2022/03/10 09:02:54;;;;;;;7.57;4.93;;;;;;;5.27;50.89;100668.63;5031528;28;20107;-71
2022/03/10 09:05:19;;;;;;;6.95;5.53;;;;;;;4.63;51.97;100681.69;5033471;28;20391;-70
2022/03/10 09:07:45;;;;;;;7.45;5.03;;;;;;;3.61;52.87;100711.72;5032577;28;20128;-69
2022/03/10 09:10:11;;;;;;;5.63;4.57;;;;;;;3.83;52.29;100674.28;5032813;28;20494;-70
2022/03/10 09:12:37;;;;;;;6.95;5.30;;;;;;;4.65;52.09;100700.16;5032797;28;20025;-70
2022/03/10 09:15:04;;;;;;;6.95;5.72;;;;;;;4.64;52.72;100689.25;5031886;28;20025;-70
2022/03/10 09:17:29;;;;;;;6.70;5.30;;;;;;;4.58;50.61;100698.41;5032952;28;20025;-70
2022/03/10 09:19:55;;;;;;;5.88;5.07;;;;;;;4.70;51.83;100698.50;5032870;28;20025;-70
2022/03/10 09:22:22;;;;;;;12.05;5.97;;;;;;;4.64;51.89;100696.81;5032148;28;20052;-69
2022/03/10 09:24:48;;;;;;;7.60;5.53;;;;;;;4.62;51.13;100674.94;5032609;28;20057;-69
2022/03/10 09:27:13;;;;;;;7.22;5.20;;;;;;;5.26;51.18;100655.19;5032405;28;20140;-71
2022/03/10 09:29:38;;;;;;;5.93;4.75;;;;;;;4.56;51.71;100716.03;5032197;28;20152;-70
2022/03/10 09:32:04;;;;;;;6.93;4.93;;;;;;;4.61;51.34;100716.09;5031304;28;20036;-71
2022/03/10 09:34:30;;;;;;;9.50;4.97;;;;;;;4.88;49.84;100709.56;5031733;28;20526;-72
2022/03/10 09:36:55;;;;;;;6.32;4.95;;;;;;;4.27;50.97;100723.34;5032087;28;20025;-70
2022/03/10 09:39:21;;;;;;;7.13;5.50;;;;;;;4.75;50.08;100724.59;5032371;28;20044;-69
2022/03/10 09:41:46;;;;;;;7.00;5.00;;;;;;;4.95;50.20;100706.25;5032210;28;20475;-70
2022/03/10 09:44:15;;;;;;;7.15;5.40;;;;;;;4.93;50.20;100690.28;5031822;28;20380;-70
2022/03/10 09:46:42;;;;;;;7.90;5.88;;;;;;;5.44;50.63;100702.34;5032395;28;20494;-70
2022/03/10 09:49:07;;;;;;;8.82;5.35;;;;;;;4.87;49.62;100719.66;5031788;28;20021;-70
2022/03/10 09:51:33;;;;;;;13.00;6.05;;;;;;;4.74;49.34;100723.75;5031633;28;20410;-69
2022/03/10 09:53:59;;;;;;;6.60;5.57;;;;;;;4.53;51.79;100736.16;5032396;28;20112;-69
2022/03/10 09:56:26;;;;;;;6.78;5.53;;;;;;;5.00;51.01;100729.81;5032486;28;20041;-69
2022/03/10 09:58:51;;;;;;;9.48;6.70;;;;;;;6.20;48.29;100689.97;5031905;28;20032;-69
2022/03/10 10:01:17;;;;;;;7.53;5.47;;;;;;;5.44;49.53;100737.63;5032637;28;20112;-70
2022/03/10 10:03:42;;;;;;;7.60;5.45;;;;;;;4.17;49.65;100733.31;5032183;28;20099;-71
2022/03/10 10:06:07;;;;;;;6.50;5.22;;;;;;;5.08;51.04;100697.09;5031410;28;20053;-70
2022/03/10 10:08:38;;;;;;;7.53;5.18;;;;;;;5.08;50.39;100730.69;5031917;28;20032;-70
2022/03/10 10:11:05;;;;;;;6.95;5.43;;;;;;;5.05;50.77;100727.31;5031651;28;20091;-70
2022/03/10 10:13:39;;;;;;;8.25;5.43;;;;;;;4.95;49.03;100721.34;5030462;28;20128;-71
2022/03/10 10:16:09;;;;;;;7.03;5.88;;;;;;;6.17;48.00;100728.66;5031558;28;20461;-70
2022/03/10 10:18:37;;;;;;;7.13;5.25;;;;;;;5.60;48.30;100728.44;5031385;28;20220;-69
2022/03/10 10:21:04;;;;;;;14.30;8.68;;;;;;;5.62;49.55;100701.56;5031637;28;20029;-70
2022/03/10 10:23:35;;;;;;;6.05;5.32;;;;;;;5.22;48.14;100711.47;5045011;28;20052;-69
2022/03/10 10:26:05;;;;;;;7.57;5.22;;;;;;;5.28;48.89;100725.78;5050936;28;20033;-69
2022/03/10 10:28:39;;;;;;;8.27;6.75;;;;;;;6.01;48.74;100721.88;5033156;28;20426;-69
2022/03/10 10:31:11;;;;;;;6.82;5.75;;;;;;;5.22;51.33;100726.59;5050933;28;20514;-68
2022/03/10 10:33:38;;;;;;;9.88;6.03;;;;;;;5.37;51.60;100727.50;5050964;28;20079;-69
2022/03/10 10:36:24;;;;;;;8.45;6.13;;;;;;;5.17;51.43;100728.22;5050429;28;20031;-67
2022/03/10 10:38:52;;;;;;;8.13;6.30;;;;;;;5.13;52.03;100693.75;5051384;28;20094;-69
2022/03/10 10:41:19;;;;;;;8.40;5.95;;;;;;;5.55;49.89;100694.78;5050611;28;20025;-69
2022/03/10 10:43:49;;;;;;;8.32;6.88;;;;;;;7.28;48.91;100699.94;5032751;28;20495;-69
2022/03/10 10:46:43;;;;;;;7.78;6.32;;;;;;;6.05;49.45;100716.84;5050743;28;20051;-69
2022/03/10 10:49:09;;;;;;;9.70;5.97;;;;;;;4.85;51.19;100686.88;5031509;28;20427;-71
2022/03/10 10:51:47;;;;;;;8.23;6.25;;;;;;;5.52;50.66;100697.31;5051231;28;20119;-70
2022/03/10 10:54:19;;;;;;;8.90;7.20;;;;;;;6.46;51.24;100711.84;5050484;28;20534;-70
2022/03/10 10:56:47;;;;;;;9.52;7.63;;;;;;;5.96;51.02;100680.66;5050822;28;20040;-70
2022/03/10 10:59:54;;;;;;;12.93;7.50;;;;;;;5.90;50.89;100683.19;5050376;28;20033;-70
2022/03/10 11:02:21;;;;;;;8.90;6.72;;;;;;;6.31;51.72;100696.69;5009550;28;20084;-71
2022/03/10 11:04:50;;;;;;;9.45;7.03;;;;;;;6.37;50.40;100680.69;5051136;28;20082;-71
2022/03/10 11:07:16;;;;;;;11.38;6.65;;;;;;;6.35;52.26;100708.47;5050825;28;20067;-70
2022/03/10 11:09:43;;;;;;;8.90;7.22;;;;;;;6.25;50.60;100680.69;5050596;28;20086;-70
2022/03/10 11:12:13;;;;;;;8.05;6.72;;;;;;;5.84;52.84;100698.31;5050632;28;20032;-70
2022/03/10 11:14:39;;;;;;;8.98;7.50;;;;;;;6.93;52.79;100669.69;5050631;28;20067;-70
2022/03/10 11:17:05;;;;;;;15.10;6.32;;;;;;;6.27;50.41;100666.38;5050689;28;20041;-70
2022/03/10 11:19:34;;;;;;;9.52;6.38;;;;;;;5.99;51.58;100689.09;5050885;28;20094;-71
2022/03/10 11:22:06;;;;;;;8.18;6.43;;;;;;;6.70;50.17;100708.47;5050758;28;20021;-72
2022/03/10 11:24:50;;;;;;;7.45;5.65;;;;;;;7.07;50.88;100704.22;5050992;28;20032;-69
2022/03/10 11:27:20;;;;;;;5.60;4.60;;;;;;;6.42;49.81;100701.75;5050502;28;20509;-68
2022/03/10 11:29:48;;;;;;;7.00;5.55;;;;;;;6.64;48.51;100635.22;5050186;28;20025;-70